createdAt,value
2022-09-25T00:00:02.664Z,0.88
2022-09-25T00:02:32.962Z,0.60
2022-09-25T00:05:02.105Z,0.47
2022-09-25T00:07:31.168Z,1.85
2022-09-25T00:10:00.297Z,1.95
2022-09-25T00:12:29.748Z,5.22
2022-09-25T00:14:58.898Z,0.85
2022-09-25T00:17:28.060Z,0.63
2022-09-25T00:19:57.188Z,0.80
2022-09-25T00:22:27.392Z,0.60
2022-09-25T00:24:56.479Z,0.60
2022-09-25T00:27:25.524Z,0.57
2022-09-25T00:29:54.565Z,1.95
2022-09-25T00:32:23.533Z,0.70
2022-09-25T00:34:52.537Z,1.08
2022-09-25T00:37:22.219Z,1.20
2022-09-25T00:39:51.212Z,10.95
2022-09-25T00:42:24.081Z,5.57
2022-09-25T00:45:08.997Z,7.38
2022-09-25T00:47:50.753Z,5.07
2022-09-25T00:50:37.274Z,5.33
2022-09-25T00:53:23.273Z,4.63
2022-09-25T00:55:53.446Z,3.80
2022-09-25T00:58:25.999Z,4.07
2022-09-25T01:03:25.430Z,6.30
2022-09-25T01:05:58.867Z,7.57
2022-09-25T01:08:34.442Z,6.13
2022-09-25T01:11:07.804Z,5.22
2022-09-25T01:13:40.390Z,2.10
2022-09-25T01:16:21.147Z,2.10
2022-09-25T01:19:08.447Z,4.13
2022-09-25T01:22:01.190Z,6.07
2022-09-25T01:25:10.135Z,5.38
2022-09-25T01:28:16.762Z,4.80
2022-09-25T01:30:53.346Z,5.20
2022-09-25T01:33:31.805Z,6.38
2022-09-25T01:36:30.425Z,5.47
2022-09-25T01:39:10.543Z,6.25
2022-09-25T01:41:49.158Z,9.75
2022-09-25T01:44:32.779Z,16.98
2022-09-25T01:47:11.085Z,18.70
2022-09-25T01:49:46.347Z,24.00
2022-09-25T01:52:31.654Z,20.50
2022-09-25T01:55:13.932Z,27.45
2022-09-25T01:57:58.932Z,30.30
2022-09-25T02:00:28.445Z,37.92
2022-09-25T02:03:07.681Z,32.53
2022-09-25T02:05:53.345Z,35.95
2022-09-25T02:08:31.083Z,34.67
2022-09-25T02:11:05.280Z,38.55
2022-09-25T02:13:42.993Z,34.97
2022-09-25T02:16:18.895Z,30.30
2022-09-25T02:19:07.517Z,42.22
2022-09-25T02:21:52.030Z,36.40
2022-09-25T02:24:59.227Z,36.72
2022-09-25T02:27:30.491Z,31.58
2022-09-25T02:30:00.510Z,28.33
2022-09-25T02:32:34.887Z,19.77
2022-09-25T02:35:05.671Z,21.15
2022-09-25T02:37:35.662Z,12.88
2022-09-25T02:40:06.187Z,11.32
2022-09-25T02:43:13.638Z,10.77
2022-09-25T02:46:20.036Z,10.57
2022-09-25T02:49:11.243Z,5.60
2022-09-25T02:52:02.349Z,5.85
2022-09-25T02:54:37.670Z,7.20
2022-09-25T02:57:10.281Z,7.93
2022-09-25T03:02:14.551Z,4.90
2022-09-25T03:04:49.537Z,8.48
2022-09-25T03:07:20.978Z,5.20
2022-09-25T03:09:54.730Z,5.22
2022-09-25T03:12:24.172Z,7.35
2022-09-25T03:14:53.687Z,9.80
2022-09-25T03:17:24.706Z,6.40
2022-09-25T03:19:54.610Z,5.30
2022-09-25T03:22:25.075Z,3.05
2022-09-25T03:24:55.397Z,6.57
2022-09-25T03:27:27.099Z,5.07
2022-09-25T03:29:56.953Z,3.90
2022-09-25T03:32:27.383Z,3.55
2022-09-25T03:34:57.450Z,4.30
2022-09-25T03:37:27.119Z,4.55
2022-09-25T03:39:57.870Z,4.32
2022-09-25T03:42:29.993Z,5.80
2022-09-25T03:44:59.543Z,4.03
2022-09-25T03:47:30.582Z,6.47
2022-09-25T03:50:00.208Z,3.42
2022-09-25T03:52:29.949Z,3.17
2022-09-25T03:54:59.833Z,3.10
2022-09-25T03:57:29.214Z,3.30
2022-09-25T04:00:02.738Z,6.03
2022-09-25T04:02:42.027Z,2.67
2022-09-25T04:05:13.724Z,2.65
2022-09-25T04:07:43.324Z,2.63
2022-09-25T04:10:12.934Z,3.72
2022-09-25T04:12:45.160Z,4.30
2022-09-25T04:15:14.760Z,4.57
2022-09-25T04:17:44.766Z,3.05
2022-09-25T04:20:15.335Z,3.65
2022-09-25T04:22:46.280Z,4.80
2022-09-25T04:25:22.080Z,2.63
2022-09-25T04:27:56.825Z,3.78
2022-09-25T04:30:28.821Z,2.10
2022-09-25T04:33:18.212Z,3.42
2022-09-25T04:35:48.541Z,2.78
2022-09-25T04:38:18.350Z,3.33
2022-09-25T04:40:48.673Z,7.50
2022-09-25T04:43:21.122Z,3.65
2022-09-25T04:48:20.058Z,9.50
2022-09-25T04:50:54.591Z,2.30
2022-09-25T04:53:24.199Z,2.80
2022-09-25T04:55:58.907Z,3.42
2022-09-25T04:58:28.636Z,6.55
2022-09-25T05:01:02.739Z,2.30
2022-09-25T05:03:33.294Z,3.50
2022-09-25T05:06:04.416Z,4.65
2022-09-25T05:08:34.237Z,3.60
2022-09-25T05:11:05.264Z,4.50
2022-09-25T05:13:34.969Z,3.70
2022-09-25T05:16:04.984Z,2.83
2022-09-25T05:18:36.788Z,2.40
2022-09-25T05:21:07.919Z,6.03
2022-09-25T05:23:37.544Z,5.03
2022-09-25T05:26:07.829Z,4.82
2022-09-25T05:28:39.248Z,3.28
2022-09-25T05:31:09.646Z,7.10
2022-09-25T05:33:39.109Z,5.72
2022-09-25T05:36:10.026Z,4.93
2022-09-25T05:38:41.800Z,4.30
2022-09-25T05:41:12.886Z,5.68
2022-09-25T05:43:51.461Z,11.07
2022-09-25T05:46:22.953Z,6.03
2022-09-25T05:48:53.104Z,7.05
2022-09-25T05:51:22.931Z,6.55
2022-09-25T05:53:55.352Z,3.42
2022-09-25T05:59:00.079Z,5.38
2022-09-25T06:01:30.867Z,8.38
2022-09-25T06:04:01.038Z,15.20
2022-09-25T06:06:33.684Z,18.33
2022-09-25T06:09:04.242Z,17.38
2022-09-25T06:11:34.466Z,18.42
2022-09-25T06:14:07.551Z,13.70
2022-09-25T06:16:38.908Z,19.63
2022-09-25T06:19:10.130Z,20.48
2022-09-25T06:21:41.732Z,25.77
2022-09-25T06:24:12.740Z,25.40
2022-09-25T06:26:42.443Z,26.75
2022-09-25T06:29:12.047Z,28.63
2022-09-25T06:31:41.929Z,35.67
2022-09-25T06:34:13.508Z,38.42
2022-09-25T06:36:43.970Z,28.65
2022-09-25T06:39:13.921Z,24.15
2022-09-25T06:41:43.737Z,25.95
2022-09-25T06:44:14.831Z,16.75
2022-09-25T06:46:46.325Z,9.73
2022-09-25T06:49:17.410Z,10.25
2022-09-25T06:51:48.066Z,12.85
2022-09-25T06:54:18.777Z,16.15
2022-09-25T06:56:52.732Z,19.35
2022-09-25T06:59:34.557Z,17.05
2022-09-25T07:02:23.681Z,12.93
2022-09-25T07:04:53.058Z,11.40
2022-09-25T07:07:24.037Z,14.23
2022-09-25T07:09:52.868Z,16.35
2022-09-25T07:12:23.000Z,13.05
2022-09-25T07:14:52.025Z,12.48
2022-09-25T07:17:20.951Z,13.50
2022-09-25T07:19:49.854Z,11.90
2022-09-25T07:22:18.466Z,13.55
2022-09-25T07:24:47.396Z,10.60
2022-09-25T07:27:16.305Z,13.85
2022-09-25T07:29:45.959Z,11.65
2022-09-25T07:32:14.734Z,12.48
2022-09-25T07:34:43.570Z,22.48
2022-09-25T07:37:13.226Z,15.65
2022-09-25T07:39:42.122Z,20.38
2022-09-25T07:42:12.371Z,13.88
2022-09-25T07:44:46.064Z,15.80
2022-09-25T07:47:17.959Z,11.93
2022-09-25T07:49:47.526Z,12.25
2022-09-25T07:52:17.186Z,19.63
2022-09-25T07:54:46.361Z,15.68
2022-09-25T07:57:15.882Z,16.08
2022-09-25T07:59:44.876Z,14.07
2022-09-25T08:02:13.970Z,15.68
2022-09-25T08:04:42.985Z,18.25
2022-09-25T08:07:13.934Z,14.60
2022-09-25T08:09:42.792Z,11.48
2022-09-25T08:12:14.776Z,12.20
2022-09-25T08:14:43.727Z,12.55
2022-09-25T08:17:13.024Z,13.80
2022-09-25T08:19:41.980Z,10.38
2022-09-25T08:22:11.049Z,12.57
2022-09-25T08:24:41.309Z,11.55
2022-09-25T08:27:10.369Z,13.95
2022-09-25T08:29:39.299Z,15.32
2022-09-25T08:32:08.593Z,10.80
2022-09-25T08:34:41.209Z,12.48
2022-09-25T08:37:11.566Z,13.00
2022-09-25T08:39:40.538Z,12.00
2022-09-25T08:42:20.532Z,12.20
2022-09-25T08:45:22.158Z,14.05
2022-09-25T08:48:14.127Z,12.50
2022-09-25T08:50:43.988Z,12.63
2022-09-25T08:56:30.415Z,10.52
2022-09-25T08:59:17.173Z,9.32
2022-09-25T09:01:54.369Z,9.35
2022-09-25T09:04:42.012Z,8.50
2022-09-25T09:07:27.173Z,9.45
2022-09-25T09:10:02.889Z,7.68
2022-09-25T09:12:37.739Z,8.00
2022-09-25T09:15:33.885Z,13.15
2022-09-25T09:18:10.298Z,9.75
2022-09-25T09:20:55.207Z,9.48
2022-09-25T09:23:26.426Z,14.80
2022-09-25T09:26:04.552Z,7.80
2022-09-25T09:28:45.464Z,9.20
2022-09-25T09:31:53.207Z,9.40
2022-09-25T09:35:07.733Z,9.30
2022-09-25T09:38:24.176Z,7.47
2022-09-25T09:43:32.229Z,23.33
2022-09-25T09:46:06.631Z,8.57
2022-09-25T09:49:03.425Z,10.10
2022-09-25T09:51:59.996Z,7.30
2022-09-25T09:54:48.157Z,7.68
2022-09-25T09:57:22.517Z,8.73
2022-09-25T10:00:04.338Z,11.23
2022-09-25T10:02:45.487Z,8.80
2022-09-25T10:05:24.787Z,11.57
2022-09-25T10:07:55.091Z,9.32
2022-09-25T10:10:33.492Z,12.02
2022-09-25T10:13:08.026Z,12.13
2022-09-25T10:15:43.936Z,6.68
2022-09-25T10:18:14.521Z,10.07
2022-09-25T10:21:05.433Z,9.93
2022-09-25T10:23:41.370Z,12.98
2022-09-25T10:26:39.943Z,7.57
2022-09-25T10:29:11.729Z,7.35
2022-09-25T10:31:42.145Z,7.43
2022-09-25T10:34:14.664Z,7.93
2022-09-25T10:36:47.830Z,7.00
2022-09-25T10:39:44.115Z,11.48
2022-09-25T10:42:40.481Z,7.75
2022-09-25T10:45:24.659Z,12.32
2022-09-25T10:48:11.953Z,7.82
2022-09-25T10:50:41.985Z,7.80
2022-09-25T10:53:31.009Z,7.38
2022-09-25T10:56:15.401Z,9.18
2022-09-25T10:58:59.690Z,7.53
2022-09-25T11:01:37.556Z,6.25
2022-09-25T11:04:23.946Z,7.28
2022-09-25T11:06:59.206Z,9.82
2022-09-25T11:09:33.405Z,7.95
2022-09-25T11:12:11.092Z,13.60
2022-09-25T11:14:43.975Z,7.75
2022-09-25T11:17:34.632Z,6.72
2022-09-25T11:20:19.047Z,8.18
2022-09-25T11:23:05.659Z,6.78
2022-09-25T11:25:50.534Z,7.55
2022-09-25T11:28:28.253Z,11.27
2022-09-25T11:31:21.244Z,9.43
2022-09-25T11:34:13.461Z,6.10
2022-09-25T11:36:53.600Z,5.90
2022-09-25T11:39:53.477Z,7.95
2022-09-25T11:42:48.982Z,7.07
2022-09-25T11:45:45.191Z,10.75
2022-09-25T11:48:41.412Z,5.30
2022-09-25T11:51:37.615Z,5.97
2022-09-25T11:54:33.635Z,10.73
2022-09-25T11:57:15.027Z,6.22
2022-09-25T12:00:08.211Z,9.55
2022-09-25T12:03:10.598Z,8.35
2022-09-25T12:05:49.227Z,7.72
2022-09-25T12:08:43.201Z,10.48
2022-09-25T12:11:36.226Z,8.57
2022-09-25T12:14:30.253Z,8.82
2022-09-25T12:17:23.332Z,8.07
2022-09-25T12:20:01.492Z,6.72
2022-09-25T12:22:42.221Z,7.15
2022-09-25T12:25:32.565Z,7.50
2022-09-25T12:28:13.656Z,11.75
2022-09-25T12:31:13.153Z,9.93
2022-09-25T12:34:03.006Z,11.13
2022-09-25T12:36:53.995Z,17.63
2022-09-25T12:39:45.006Z,19.45
2022-09-25T12:42:30.636Z,15.70
2022-09-25T12:45:17.494Z,23.23
2022-09-25T12:47:47.443Z,19.35
2022-09-25T12:50:23.732Z,16.27
2022-09-25T12:53:22.012Z,12.70
2022-09-25T12:56:14.428Z,12.27
2022-09-25T12:59:04.448Z,14.43
2022-09-25T13:01:48.832Z,16.65
2022-09-25T13:05:05.493Z,17.67
2022-09-25T13:07:50.248Z,16.10
2022-09-25T13:10:31.260Z,15.82
2022-09-25T13:13:03.850Z,15.38
2022-09-25T13:15:37.203Z,11.00
2022-09-25T13:18:08.266Z,18.02
2022-09-25T13:20:38.800Z,12.95
2022-09-25T13:23:16.983Z,13.32
2022-09-25T13:26:00.825Z,21.90
2022-09-25T13:28:35.581Z,14.55
2022-09-25T13:31:24.468Z,12.73
2022-09-25T13:34:03.318Z,14.38
2022-09-25T13:36:37.568Z,9.18
2022-09-25T13:39:46.731Z,11.82
2022-09-25T13:42:43.312Z,10.77
2022-09-25T13:45:28.135Z,13.52
2022-09-25T13:48:06.001Z,17.05
2022-09-25T13:50:37.629Z,8.73
2022-09-25T13:53:18.662Z,16.35
2022-09-25T13:55:59.566Z,12.18
2022-09-25T13:58:33.281Z,9.27
2022-09-25T14:01:04.137Z,6.90
2022-09-25T14:03:40.804Z,5.32
2022-09-25T14:06:17.778Z,5.68
2022-09-25T14:08:48.791Z,5.85
2022-09-25T14:11:26.030Z,10.55
2022-09-25T14:13:57.884Z,10.13
2022-09-25T14:16:32.846Z,10.80
2022-09-25T14:19:07.223Z,8.15
2022-09-25T14:21:37.560Z,8.65
2022-09-25T14:24:24.384Z,8.43
2022-09-25T14:26:54.235Z,9.52
2022-09-25T14:29:28.428Z,8.25
2022-09-25T14:32:55.190Z,12.48
2022-09-25T14:35:49.154Z,6.20
2022-09-25T14:38:39.693Z,11.95
2022-09-25T14:41:33.722Z,9.07
2022-09-25T14:44:26.786Z,10.63
2022-09-25T14:47:00.257Z,8.57
2022-09-25T14:49:35.089Z,6.35
2022-09-25T14:52:08.237Z,8.05
2022-09-25T14:54:43.012Z,8.15
2022-09-25T14:57:12.980Z,6.65
2022-09-25T14:59:48.080Z,11.52
2022-09-25T15:02:34.915Z,8.75
2022-09-25T15:05:25.395Z,13.30
2022-09-25T15:07:56.415Z,6.70
2022-09-25T15:10:38.265Z,5.45
2022-09-25T15:13:19.786Z,5.93
2022-09-25T15:16:30.825Z,12.85
2022-09-25T15:19:02.325Z,7.07
2022-09-25T15:21:33.984Z,7.55
2022-09-25T15:24:18.792Z,6.78
2022-09-25T15:27:03.774Z,6.45
2022-09-25T15:29:37.303Z,6.75
2022-09-25T15:32:07.349Z,4.55
2022-09-25T15:34:37.387Z,11.57
2022-09-25T15:37:30.470Z,7.85
2022-09-25T15:40:12.846Z,9.90
2022-09-25T15:42:46.996Z,10.52
2022-09-25T15:45:38.689Z,6.55
2022-09-25T15:48:30.325Z,6.28
2022-09-25T15:51:21.329Z,9.27
2022-09-25T15:54:13.910Z,9.27
2022-09-25T15:56:56.313Z,7.13
2022-09-25T15:59:35.604Z,8.00
2022-09-25T16:02:41.364Z,6.18
2022-09-25T16:05:13.076Z,12.07
2022-09-25T16:07:42.370Z,13.30
2022-09-25T16:10:12.319Z,9.13
2022-09-25T16:12:52.545Z,8.18
2022-09-25T16:15:32.195Z,13.30
2022-09-25T16:18:26.434Z,9.82
2022-09-25T16:21:29.173Z,12.52
2022-09-25T16:24:19.506Z,15.85
2022-09-25T16:26:56.349Z,14.65
2022-09-25T16:29:46.127Z,17.40
2022-09-25T16:32:21.192Z,11.02
2022-09-25T16:35:01.564Z,22.77
2022-09-25T16:37:37.284Z,12.73
2022-09-25T16:40:21.158Z,17.52
2022-09-25T16:42:51.930Z,13.80
2022-09-25T16:45:30.911Z,17.63
2022-09-25T16:48:01.052Z,14.23
2022-09-25T16:50:34.579Z,18.45
2022-09-25T16:53:04.605Z,12.50
2022-09-25T16:55:35.412Z,15.48
2022-09-25T16:58:11.397Z,17.25
2022-09-25T17:00:40.862Z,18.70
2022-09-25T17:03:13.619Z,16.50
2022-09-25T17:05:43.246Z,14.73
2022-09-25T17:08:30.974Z,13.02
2022-09-25T17:11:01.446Z,17.23
2022-09-25T17:13:32.530Z,16.08
2022-09-25T17:16:02.100Z,14.13
2022-09-25T17:18:32.950Z,16.17
2022-09-25T17:21:05.702Z,14.98
2022-09-25T17:23:35.098Z,15.38
2022-09-25T17:26:08.835Z,12.60
2022-09-25T17:28:38.951Z,14.70
2022-09-25T17:31:08.306Z,12.38
2022-09-25T17:33:37.798Z,14.60
2022-09-25T17:36:08.932Z,15.35
2022-09-25T17:38:37.935Z,15.25
2022-09-25T17:41:34.648Z,16.38
2022-09-25T17:44:04.674Z,17.45
2022-09-25T17:46:37.297Z,18.27
2022-09-25T17:49:09.082Z,19.27
2022-09-25T17:51:39.020Z,16.98
2022-09-25T17:54:08.273Z,16.35
2022-09-25T17:56:39.082Z,22.38
2022-09-25T17:59:10.241Z,23.35
2022-09-25T18:01:40.205Z,20.73
2022-09-25T18:04:24.595Z,23.30
2022-09-25T18:06:54.007Z,22.27
2022-09-25T18:09:23.134Z,26.15
2022-09-25T18:11:53.812Z,24.15
2022-09-25T18:14:40.105Z,28.85
2022-09-25T18:17:10.807Z,24.65
2022-09-25T18:19:57.824Z,27.92
2022-09-25T18:22:27.758Z,24.30
2022-09-25T18:24:59.715Z,24.02
2022-09-25T18:27:32.158Z,26.30
2022-09-25T18:30:01.618Z,28.10
2022-09-25T18:32:32.344Z,31.35
2022-09-25T18:35:03.517Z,21.77
2022-09-25T18:37:32.583Z,23.63
2022-09-25T18:40:02.074Z,17.40
2022-09-25T18:42:31.092Z,20.13
2022-09-25T18:45:00.142Z,26.10
2022-09-25T18:47:29.545Z,18.02
2022-09-25T18:49:58.834Z,16.75
2022-09-25T18:52:27.880Z,22.17
2022-09-25T18:55:04.301Z,24.55
2022-09-25T18:57:40.445Z,19.50
2022-09-25T19:00:13.938Z,16.73
2022-09-25T19:02:44.520Z,15.27
2022-09-25T19:05:13.644Z,21.42
2022-09-25T19:07:42.574Z,19.45
2022-09-25T19:10:11.861Z,20.88
2022-09-25T19:12:40.989Z,17.73
2022-09-25T19:15:10.738Z,21.92
2022-09-25T19:17:40.212Z,16.85
2022-09-25T19:20:09.391Z,16.70
2022-09-25T19:22:38.556Z,20.73
2022-09-25T19:25:08.242Z,21.15
2022-09-25T19:27:37.743Z,17.83
2022-09-25T19:30:07.193Z,21.80
2022-09-25T19:32:35.910Z,24.27
2022-09-25T19:35:04.825Z,22.25
2022-09-25T19:37:34.462Z,21.13
2022-09-25T19:40:22.072Z,27.10
2022-09-25T19:42:51.579Z,25.52
2022-09-25T19:45:22.113Z,25.40
2022-09-25T19:47:51.856Z,25.33
2022-09-25T19:50:20.588Z,29.48
2022-09-25T19:52:51.208Z,24.02
2022-09-25T19:55:20.794Z,30.20
2022-09-25T19:57:49.509Z,31.48
2022-09-25T20:00:19.544Z,36.60
2022-09-25T20:02:49.686Z,32.65
2022-09-25T20:05:18.761Z,35.42
2022-09-25T20:07:47.740Z,27.38
2022-09-25T20:10:16.543Z,26.58
2022-09-25T20:12:45.707Z,21.25
2022-09-25T20:15:14.457Z,20.15
2022-09-25T20:17:43.345Z,18.98
2022-09-25T20:20:12.191Z,14.07
2022-09-25T20:22:40.925Z,15.38
2022-09-25T20:25:11.971Z,10.63
2022-09-25T20:27:40.848Z,13.80
2022-09-25T20:30:09.940Z,10.93
2022-09-25T20:32:39.655Z,11.63
2022-09-25T20:35:09.181Z,12.15
2022-09-25T20:37:38.500Z,12.52
2022-09-25T20:40:07.796Z,8.85
2022-09-25T20:42:36.946Z,11.35
2022-09-25T20:45:06.133Z,14.43
2022-09-25T20:47:35.403Z,8.63
2022-09-25T20:50:05.826Z,15.68
2022-09-25T20:52:35.839Z,15.65
2022-09-25T20:55:05.266Z,9.18
2022-09-25T20:57:34.492Z,10.85
2022-09-25T21:00:06.680Z,12.80
2022-09-25T21:02:36.177Z,12.07
2022-09-25T21:05:05.120Z,11.15
2022-09-25T21:07:34.183Z,9.10
2022-09-25T21:10:03.044Z,14.85
2022-09-25T21:12:31.704Z,10.55
2022-09-25T21:15:00.882Z,11.20
2022-09-25T21:17:29.675Z,14.40
2022-09-25T21:19:58.656Z,13.77
2022-09-25T21:22:27.969Z,11.10
2022-09-25T21:24:56.941Z,13.77
2022-09-25T21:27:25.716Z,8.32
2022-09-25T21:29:54.733Z,11.13
2022-09-25T21:32:23.588Z,12.05
2022-09-25T21:34:52.949Z,12.05
2022-09-25T21:37:21.749Z,20.08
2022-09-25T21:39:50.755Z,12.13
2022-09-25T21:42:19.604Z,20.10
2022-09-25T21:44:48.904Z,17.92
2022-09-25T21:47:19.008Z,15.70
2022-09-25T21:49:48.150Z,16.15
2022-09-25T21:52:17.289Z,21.85
2022-09-25T21:54:46.009Z,18.00
2022-09-25T21:57:15.031Z,16.13
2022-09-25T21:59:43.870Z,20.13
2022-09-25T22:02:12.841Z,20.67
2022-09-25T22:04:41.639Z,20.60
2022-09-25T22:07:11.109Z,20.35
2022-09-25T22:09:39.817Z,18.60
2022-09-25T22:12:08.735Z,17.13
2022-09-25T22:14:37.673Z,17.77
2022-09-25T22:17:06.548Z,17.75
2022-09-25T22:19:35.450Z,15.77
2022-09-25T22:22:04.348Z,13.90
2022-09-25T22:24:33.437Z,26.98
2022-09-25T22:27:02.419Z,20.83
2022-09-25T22:29:31.472Z,17.33
2022-09-25T22:32:00.474Z,15.98
2022-09-25T22:34:31.225Z,18.48
2022-09-25T22:37:00.577Z,17.25
2022-09-25T22:39:30.536Z,17.40
2022-09-25T22:42:00.094Z,16.30
2022-09-25T22:44:28.943Z,19.05
2022-09-25T22:46:58.153Z,20.38
2022-09-25T22:49:27.202Z,21.35
2022-09-25T22:51:56.370Z,17.80
2022-09-25T22:54:25.278Z,18.52
2022-09-25T22:56:54.280Z,19.63
2022-09-25T22:59:23.010Z,19.25
2022-09-25T23:01:55.101Z,25.00
2022-09-25T23:04:25.885Z,20.27
2022-09-25T23:06:55.683Z,26.75
2022-09-25T23:09:29.577Z,22.48
2022-09-25T23:11:59.225Z,24.38
2022-09-25T23:14:31.648Z,22.52
2022-09-25T23:17:04.209Z,22.77
2022-09-25T23:22:01.859Z,27.27
2022-09-25T23:24:31.672Z,20.88
2022-09-25T23:27:00.509Z,21.30
2022-09-25T23:29:29.558Z,26.33
2022-09-25T23:31:58.267Z,25.52
2022-09-25T23:34:27.360Z,28.45
2022-09-25T23:36:56.318Z,21.95
2022-09-25T23:39:25.770Z,25.83
2022-09-25T23:41:54.750Z,26.35
2022-09-25T23:44:23.980Z,19.85
2022-09-25T23:46:52.776Z,25.83
2022-09-25T23:49:21.666Z,22.58
2022-09-25T23:51:50.911Z,22.15
2022-09-25T23:54:20.114Z,23.38
2022-09-25T23:56:49.067Z,30.83
2022-09-25T23:59:17.996Z,22.67
